sensor_id;sensor_type;location;lat;lon;timestamp;pressure;altitude;pressure_sealevel;temperature;humidity
47154;BME280;32907;41.412;2.164;2023-07-08T00:00:27;100340.13;;;27.58;50.69
47154;BME280;32907;41.412;2.164;2023-07-08T00:02:54;100387.75;;;27.83;51.21
47154;BME280;32907;41.412;2.164;2023-07-08T00:05:25;100373.44;;;27.77;50.57
47154;BME280;32907;41.412;2.164;2023-07-08T00:07:53;100376.28;;;27.81;51.07
47154;BME280;32907;41.412;2.164;2023-07-08T00:10:25;100338.16;;;27.58;50.52
47154;BME280;32907;41.412;2.164;2023-07-08T00:12:57;100360.69;;;27.73;50.52
47154;BME280;32907;41.412;2.164;2023-07-08T00:15:28;100370.75;;;27.81;50.50
47154;BME280;32907;41.412;2.164;2023-07-08T00:17:56;100357.47;;;27.71;50.19
47154;BME280;32907;41.412;2.164;2023-07-08T00:23:02;100328.88;;;27.63;50.08
47154;BME280;32907;41.412;2.164;2023-07-08T00:25:31;100341.75;;;27.71;50.46
47154;BME280;32907;41.412;2.164;2023-07-08T00:28:01;100294.38;;;27.41;50.39
47154;BME280;32907;41.412;2.164;2023-07-08T00:30:31;100309.28;;;27.52;50.41
47154;BME280;32907;41.412;2.164;2023-07-08T00:33:00;100329.47;;;27.69;50.65
47154;BME280;32907;41.412;2.164;2023-07-08T00:38:49;100292.31;;;27.38;50.46
47154;BME280;32907;41.412;2.164;2023-07-08T00:43:51;100306.97;;;27.54;50.35
47154;BME280;32907;41.412;2.164;2023-07-08T00:53:36;100231.22;;;27.20;49.83
47154;BME280;32907;41.412;2.164;2023-07-08T01:00:32;100142.63;;;26.54;49.82
47154;BME280;32907;41.412;2.164;2023-07-08T01:02:59;100179.88;;;26.88;49.40
47154;BME280;32907;41.412;2.164;2023-07-08T01:05:28;100161.06;;;26.77;49.39
47154;BME280;32907;41.412;2.164;2023-07-08T01:08:02;100229.72;;;27.11;49.30
47154;BME280;32907;41.412;2.164;2023-07-08T01:10:33;100193.75;;;27.03;49.31
47154;BME280;32907;41.412;2.164;2023-07-08T01:13:05;100169.91;;;26.83;49.22
47154;BME280;32907;41.412;2.164;2023-07-08T01:15:42;100197.53;;;27.11;49.12
47154;BME280;32907;41.412;2.164;2023-07-08T01:18:12;100168.97;;;26.91;49.17
47154;BME280;32907;41.412;2.164;2023-07-08T01:20:40;100188.44;;;27.11;49.14
47154;BME280;32907;41.412;2.164;2023-07-08T01:23:10;100087.19;;;26.52;48.63
47154;BME280;32907;41.412;2.164;2023-07-08T01:25:41;100065.53;;;26.38;48.93
47154;BME280;32907;41.412;2.164;2023-07-08T01:28:10;100174.94;;;27.06;48.96
47154;BME280;32907;41.412;2.164;2023-07-08T01:30:41;100303.28;;;27.75;49.00
47154;BME280;32907;41.412;2.164;2023-07-08T01:33:16;100061.75;;;26.30;48.44
47154;BME280;32907;41.412;2.164;2023-07-08T01:35:49;100220.97;;;27.33;48.32
47154;BME280;32907;41.412;2.164;2023-07-08T01:38:22;100195.75;;;27.19;48.39
47154;BME280;32907;41.412;2.164;2023-07-08T01:40:54;100055.59;;;26.33;48.39
47154;BME280;32907;41.412;2.164;2023-07-08T01:43:22;100156.81;;;26.92;48.42
47154;BME280;32907;41.412;2.164;2023-07-08T01:45:51;100185.00;;;27.14;48.60
47154;BME280;32907;41.412;2.164;2023-07-08T01:48:23;100202.91;;;27.08;48.71
47154;BME280;32907;41.412;2.164;2023-07-08T01:50:57;100148.84;;;26.51;48.33
47154;BME280;32907;41.412;2.164;2023-07-08T01:53:30;100315.72;;;27.32;48.61
47154;BME280;32907;41.412;2.164;2023-07-08T01:55:59;100236.63;;;26.80;48.85
47154;BME280;32907;41.412;2.164;2023-07-08T01:58:28;100259.75;;;26.91;48.70
47154;BME280;32907;41.412;2.164;2023-07-08T02:00:56;100314.72;;;27.37;48.62
47154;BME280;32907;41.412;2.164;2023-07-08T02:03:26;100285.91;;;27.10;48.40
47154;BME280;32907;41.412;2.164;2023-07-08T02:05:55;100306.91;;;27.26;48.33
47154;BME280;32907;41.412;2.164;2023-07-08T02:08:24;100265.75;;;27.06;48.60
47154;BME280;32907;41.412;2.164;2023-07-08T02:10:57;100289.25;;;27.27;48.25
47154;BME280;32907;41.412;2.164;2023-07-08T02:13:26;100177.72;;;26.57;48.41
47154;BME280;32907;41.412;2.164;2023-07-08T02:15:54;100257.94;;;27.08;48.65
47154;BME280;32907;41.412;2.164;2023-07-08T02:18:23;100169.34;;;26.53;48.59
47154;BME280;32907;41.412;2.164;2023-07-08T02:20:52;100215.88;;;26.83;48.51
47154;BME280;32907;41.412;2.164;2023-07-08T02:23:20;100283.28;;;27.25;48.32
47154;BME280;32907;41.412;2.164;2023-07-08T02:25:54;100347.22;;;27.59;48.27
47154;BME280;32907;41.412;2.164;2023-07-08T02:28:24;100236.13;;;26.78;47.98
47154;BME280;32907;41.412;2.164;2023-07-08T02:30:52;100244.97;;;26.96;48.39
47154;BME280;32907;41.412;2.164;2023-07-08T02:33:20;100246.22;;;26.98;48.02
47154;BME280;32907;41.412;2.164;2023-07-08T02:35:47;100403.94;;;27.84;48.01
47154;BME280;32907;41.412;2.164;2023-07-08T02:38:15;100277.66;;;27.10;48.03
47154;BME280;32907;41.412;2.164;2023-07-08T02:40:45;100255.06;;;26.92;47.82
47154;BME280;32907;41.412;2.164;2023-07-08T02:43:14;100179.44;;;26.49;48.13
47154;BME280;32907;41.412;2.164;2023-07-08T02:45:42;100250.00;;;26.94;47.92
47154;BME280;32907;41.412;2.164;2023-07-08T02:48:10;100414.28;;;27.87;48.34
47154;BME280;32907;41.412;2.164;2023-07-08T02:50:39;100326.66;;;27.28;47.77
47154;BME280;32907;41.412;2.164;2023-07-08T02:53:07;100282.56;;;26.92;48.11
47154;BME280;32907;41.412;2.164;2023-07-08T02:55:35;100260.56;;;26.67;48.20
47154;BME280;32907;41.412;2.164;2023-07-08T02:58:03;100214.13;;;26.54;48.60
47154;BME280;32907;41.412;2.164;2023-07-08T03:00:34;100327.22;;;27.22;48.85
47154;BME280;32907;41.412;2.164;2023-07-08T03:03:05;100372.53;;;27.37;49.46
47154;BME280;32907;41.412;2.164;2023-07-08T03:05:34;100308.47;;;27.03;49.44
47154;BME280;32907;41.412;2.164;2023-07-08T03:08:02;100441.13;;;27.91;49.90
47154;BME280;32907;41.412;2.164;2023-07-08T03:10:30;100346.13;;;27.23;50.64
47154;BME280;32907;41.412;2.164;2023-07-08T03:12:58;100297.13;;;26.92;50.63
47154;BME280;32907;41.412;2.164;2023-07-08T03:15:26;100242.47;;;26.66;51.03
47154;BME280;32907;41.412;2.164;2023-07-08T03:17:54;100349.00;;;27.27;51.32
47154;BME280;32907;41.412;2.164;2023-07-08T03:20:25;100457.78;;;27.94;51.97
47154;BME280;32907;41.412;2.164;2023-07-08T03:22:53;100367.34;;;27.35;52.41
47154;BME280;32907;41.412;2.164;2023-07-08T03:25:21;100361.84;;;27.35;52.61
47154;BME280;32907;41.412;2.164;2023-07-08T03:27:51;100339.94;;;27.26;53.26
47154;BME280;32907;41.412;2.164;2023-07-08T03:30:19;100250.22;;;26.52;53.67
47154;BME280;32907;41.412;2.164;2023-07-08T03:32:49;100326.41;;;27.09;53.81
47154;BME280;32907;41.412;2.164;2023-07-08T03:35:17;100259.41;;;26.68;54.27
47154;BME280;32907;41.412;2.164;2023-07-08T03:37:44;100287.50;;;26.74;54.53
47154;BME280;32907;41.412;2.164;2023-07-08T03:40:14;100340.88;;;27.06;54.80
47154;BME280;32907;41.412;2.164;2023-07-08T03:42:42;100481.88;;;27.97;54.77
47154;BME280;32907;41.412;2.164;2023-07-08T03:45:11;100310.44;;;26.90;55.45
47154;BME280;32907;41.412;2.164;2023-07-08T03:47:41;100391.44;;;27.38;55.46
47154;BME280;32907;41.412;2.164;2023-07-08T03:53:20;100394.53;;;27.24;55.76
47154;BME280;32907;41.412;2.164;2023-07-08T03:55:48;100360.47;;;27.04;55.90
47154;BME280;32907;41.412;2.164;2023-07-08T03:58:16;100336.59;;;26.96;55.56
47154;BME280;32907;41.412;2.164;2023-07-08T04:00:44;100400.84;;;27.25;56.00
47154;BME280;32907;41.412;2.164;2023-07-08T04:03:12;100278.19;;;26.54;56.14
47154;BME280;32907;41.412;2.164;2023-07-08T04:05:41;100428.06;;;27.39;56.23
47154;BME280;32907;41.412;2.164;2023-07-08T04:08:08;100348.25;;;26.93;56.49
47154;BME280;32907;41.412;2.164;2023-07-08T04:10:37;100454.78;;;27.50;56.23
47154;BME280;32907;41.412;2.164;2023-07-08T04:13:05;100432.06;;;27.41;56.32
47154;BME280;32907;41.412;2.164;2023-07-08T04:15:33;100375.38;;;27.03;56.09
47154;BME280;32907;41.412;2.164;2023-07-08T04:18:00;100357.47;;;26.97;56.23
47154;BME280;32907;41.412;2.164;2023-07-08T04:20:29;100424.47;;;27.26;56.55
47154;BME280;32907;41.412;2.164;2023-07-08T04:22:57;100338.63;;;26.75;56.78
47154;BME280;32907;41.412;2.164;2023-07-08T04:25:25;100360.06;;;26.94;56.89
47154;BME280;32907;41.412;2.164;2023-07-08T04:27:55;100373.28;;;27.00;56.86
47154;BME280;32907;41.412;2.164;2023-07-08T04:30:25;100304.31;;;26.60;56.97
47154;BME280;32907;41.412;2.164;2023-07-08T04:32:53;100251.19;;;26.23;56.82
47154;BME280;32907;41.412;2.164;2023-07-08T04:35:24;100298.91;;;26.52;56.82
47154;BME280;32907;41.412;2.164;2023-07-08T04:37:52;100453.41;;;27.44;56.76
47154;BME280;32907;41.412;2.164;2023-07-08T04:40:22;100365.72;;;26.97;57.37
47154;BME280;32907;41.412;2.164;2023-07-08T04:42:50;100457.53;;;27.63;56.88
47154;BME280;32907;41.412;2.164;2023-07-08T04:45:19;100371.31;;;26.89;56.99
47154;BME280;32907;41.412;2.164;2023-07-08T04:47:48;100334.25;;;26.86;56.61
47154;BME280;32907;41.412;2.164;2023-07-08T04:50:21;100266.13;;;26.46;56.80
47154;BME280;32907;41.412;2.164;2023-07-08T04:52:51;100353.09;;;26.96;56.38
47154;BME280;32907;41.412;2.164;2023-07-08T04:55:21;100368.38;;;27.06;56.67
47154;BME280;32907;41.412;2.164;2023-07-08T04:57:49;100464.44;;;27.56;56.29
47154;BME280;32907;41.412;2.164;2023-07-08T05:00:19;100359.28;;;26.93;56.00
47154;BME280;32907;41.412;2.164;2023-07-08T05:02:47;100347.22;;;26.86;55.87
47154;BME280;32907;41.412;2.164;2023-07-08T05:05:16;100396.84;;;27.22;55.90
47154;BME280;32907;41.412;2.164;2023-07-08T05:07:44;100307.78;;;26.57;55.72
47154;BME280;32907;41.412;2.164;2023-07-08T05:10:12;100414.16;;;27.23;55.42
47154;BME280;32907;41.412;2.164;2023-07-08T05:12:44;100347.81;;;26.91;54.76
47154;BME280;32907;41.412;2.164;2023-07-08T05:15:14;100326.59;;;26.80;54.27
47154;BME280;32907;41.412;2.164;2023-07-08T05:17:43;100375.03;;;27.05;54.02
47154;BME280;32907;41.412;2.164;2023-07-08T05:20:13;100384.44;;;27.16;53.75
47154;BME280;32907;41.412;2.164;2023-07-08T05:22:42;100276.56;;;26.41;53.48
47154;BME280;32907;41.412;2.164;2023-07-08T05:25:11;100477.66;;;27.75;53.85
47154;BME280;32907;41.412;2.164;2023-07-08T05:27:40;100381.81;;;27.08;53.28
47154;BME280;32907;41.412;2.164;2023-07-08T05:30:13;100388.34;;;27.15;53.41
47154;BME280;32907;41.412;2.164;2023-07-08T05:32:43;100297.31;;;26.63;52.83
47154;BME280;32907;41.412;2.164;2023-07-08T05:35:11;100385.13;;;27.13;52.93
47154;BME280;32907;41.412;2.164;2023-07-08T05:37:39;100328.63;;;26.70;52.82
47154;BME280;32907;41.412;2.164;2023-07-08T05:40:08;100503.50;;;27.71;52.84
47154;BME280;32907;41.412;2.164;2023-07-08T05:42:36;100468.09;;;27.48;52.67
47154;BME280;32907;41.412;2.164;2023-07-08T05:45:05;100257.34;;;26.08;52.44
47154;BME280;32907;41.412;2.164;2023-07-08T05:47:34;100394.31;;;27.05;52.35
47154;BME280;32907;41.412;2.164;2023-07-08T05:50:02;100409.91;;;27.13;52.56
47154;BME280;32907;41.412;2.164;2023-07-08T05:52:30;100402.22;;;27.07;52.38
47154;BME280;32907;41.412;2.164;2023-07-08T05:54:58;100444.34;;;27.31;51.91
47154;BME280;32907;41.412;2.164;2023-07-08T05:57:26;100428.25;;;27.33;52.02
47154;BME280;32907;41.412;2.164;2023-07-08T05:59:53;100472.56;;;27.65;51.50
47154;BME280;32907;41.412;2.164;2023-07-08T06:02:21;100468.91;;;27.61;51.42
47154;BME280;32907;41.412;2.164;2023-07-08T06:04:53;100439.75;;;27.48;51.58
47154;BME280;32907;41.412;2.164;2023-07-08T06:07:22;100451.34;;;27.53;51.74
47154;BME280;32907;41.412;2.164;2023-07-08T06:09:49;100460.75;;;27.65;51.62
47154;BME280;32907;41.412;2.164;2023-07-08T06:12:18;100452.75;;;27.59;51.54
47154;BME280;32907;41.412;2.164;2023-07-08T06:14:46;100452.25;;;27.57;51.21
47154;BME280;32907;41.412;2.164;2023-07-08T06:17:16;100460.75;;;27.65;51.30
47154;BME280;32907;41.412;2.164;2023-07-08T06:19:44;100475.00;;;27.67;51.56
47154;BME280;32907;41.412;2.164;2023-07-08T06:22:12;100476.13;;;27.66;51.16
47154;BME280;32907;41.412;2.164;2023-07-08T06:24:46;100438.84;;;27.44;51.37
47154;BME280;32907;41.412;2.164;2023-07-08T06:27:16;100495.09;;;27.67;51.38
47154;BME280;32907;41.412;2.164;2023-07-08T06:29:46;100441.91;;;27.42;51.44
47154;BME280;32907;41.412;2.164;2023-07-08T06:32:14;100478.53;;;27.55;51.27
47154;BME280;32907;41.412;2.164;2023-07-08T06:34:41;100485.66;;;27.56;51.67
47154;BME280;32907;41.412;2.164;2023-07-08T06:37:10;100465.59;;;27.43;51.75
47154;BME280;32907;41.412;2.164;2023-07-08T06:39:43;100489.00;;;27.62;51.49
47154;BME280;32907;41.412;2.164;2023-07-08T06:42:11;100471.09;;;27.55;52.12
47154;BME280;32907;41.412;2.164;2023-07-08T06:44:47;100480.50;;;27.67;51.87
47154;BME280;32907;41.412;2.164;2023-07-08T06:47:21;100475.22;;;27.62;52.21
47154;BME280;32907;41.412;2.164;2023-07-08T06:49:49;100489.72;;;27.71;52.22
47154;BME280;32907;41.412;2.164;2023-07-08T06:52:18;100490.41;;;27.68;52.19
47154;BME280;32907;41.412;2.164;2023-07-08T06:54:45;100457.22;;;27.52;52.33
47154;BME280;32907;41.412;2.164;2023-07-08T06:57:13;100463.03;;;27.50;52.17
47154;BME280;32907;41.412;2.164;2023-07-08T06:59:41;100497.28;;;27.74;52.27
47154;BME280;32907;41.412;2.164;2023-07-08T07:02:09;100507.16;;;27.75;51.85
47154;BME280;32907;41.412;2.164;2023-07-08T07:04:41;100509.00;;;27.71;51.81
47154;BME280;32907;41.412;2.164;2023-07-08T07:07:09;100515.22;;;27.68;51.26
47154;BME280;32907;41.412;2.164;2023-07-08T07:09:37;100485.66;;;27.44;50.86
47154;BME280;32907;41.412;2.164;2023-07-08T07:12:06;100506.31;;;27.62;50.97
47154;BME280;32907;41.412;2.164;2023-07-08T07:14:34;100487.28;;;27.45;50.82
47154;BME280;32907;41.412;2.164;2023-07-08T07:17:05;100494.47;;;27.49;50.15
47154;BME280;32907;41.412;2.164;2023-07-08T07:19:35;100496.22;;;27.54;49.61
47154;BME280;32907;41.412;2.164;2023-07-08T07:22:04;100492.19;;;27.39;48.68
47154;BME280;32907;41.412;2.164;2023-07-08T07:24:33;100467.47;;;27.18;48.56
47154;BME280;32907;41.412;2.164;2023-07-08T07:27:01;100462.31;;;27.04;48.73
47154;BME280;32907;41.412;2.164;2023-07-08T07:29:39;100481.69;;;27.08;47.95
47154;BME280;32907;41.412;2.164;2023-07-08T07:32:11;100480.13;;;27.19;48.25
47154;BME280;32907;41.412;2.164;2023-07-08T07:34:39;100490.34;;;27.31;48.70
47154;BME280;32907;41.412;2.164;2023-07-08T07:37:16;100483.69;;;27.20;47.86
47154;BME280;32907;41.412;2.164;2023-07-08T07:39:44;100472.97;;;27.18;48.07
47154;BME280;32907;41.412;2.164;2023-07-08T07:42:18;100513.06;;;27.40;47.87
47154;BME280;32907;41.412;2.164;2023-07-08T07:44:46;100482.44;;;27.29;47.84
47154;BME280;32907;41.412;2.164;2023-07-08T07:47:14;100518.13;;;27.50;47.69
47154;BME280;32907;41.412;2.164;2023-07-08T07:49:42;100508.25;;;27.49;47.42
47154;BME280;32907;41.412;2.164;2023-07-08T07:52:10;100515.59;;;27.57;47.01
47154;BME280;32907;41.412;2.164;2023-07-08T07:54:38;100498.53;;;27.52;48.50
47154;BME280;32907;41.412;2.164;2023-07-08T07:57:07;100518.59;;;27.65;46.64
47154;BME280;32907;41.412;2.164;2023-07-08T07:59:35;100480.72;;;27.49;46.81
47154;BME280;32907;41.412;2.164;2023-07-08T08:02:03;100495.88;;;27.55;46.78
47154;BME280;32907;41.412;2.164;2023-07-08T08:04:31;100506.44;;;27.66;46.38
47154;BME280;32907;41.412;2.164;2023-07-08T08:07:00;100488.31;;;27.52;46.57
47154;BME280;32907;41.412;2.164;2023-07-08T08:09:28;100508.72;;;27.64;46.59
47154;BME280;32907;41.412;2.164;2023-07-08T08:11:55;100530.56;;;27.81;46.69
47154;BME280;32907;41.412;2.164;2023-07-08T08:14:23;100514.06;;;27.69;46.75
47154;BME280;32907;41.412;2.164;2023-07-08T08:16:51;100521.16;;;27.82;46.34
47154;BME280;32907;41.412;2.164;2023-07-08T08:19:20;100546.78;;;27.95;46.97
47154;BME280;32907;41.412;2.164;2023-07-08T08:21:48;100539.75;;;27.97;47.05
47154;BME280;32907;41.412;2.164;2023-07-08T08:24:16;100506.72;;;27.85;47.94
47154;BME280;32907;41.412;2.164;2023-07-08T08:26:45;100475.00;;;27.67;47.64
47154;BME280;32907;41.412;2.164;2023-07-08T08:29:13;100527.00;;;28.05;47.98
47154;BME280;32907;41.412;2.164;2023-07-08T08:31:43;100545.38;;;28.13;48.19
47154;BME280;32907;41.412;2.164;2023-07-08T08:34:11;100539.78;;;28.09;47.95
47154;BME280;32907;41.412;2.164;2023-07-08T08:36:40;100544.84;;;28.07;48.36
47154;BME280;32907;41.412;2.164;2023-07-08T08:39:08;100538.97;;;27.97;47.74
47154;BME280;32907;41.412;2.164;2023-07-08T08:41:37;100564.56;;;28.22;48.58
47154;BME280;32907;41.412;2.164;2023-07-08T08:44:08;100544.34;;;28.18;49.44
47154;BME280;32907;41.412;2.164;2023-07-08T08:49:18;100551.00;;;28.29;48.57
47154;BME280;32907;41.412;2.164;2023-07-08T08:51:53;100544.47;;;28.21;48.44
47154;BME280;32907;41.412;2.164;2023-07-08T08:54:21;100546.31;;;28.17;49.18
47154;BME280;32907;41.412;2.164;2023-07-08T08:59:53;100538.50;;;28.31;49.08
47154;BME280;32907;41.412;2.164;2023-07-08T09:02:45;100541.13;;;28.28;49.32
47154;BME280;32907;41.412;2.164;2023-07-08T09:05:19;100555.38;;;28.30;49.39
47154;BME280;32907;41.412;2.164;2023-07-08T09:08:13;100528.75;;;28.09;49.87
47154;BME280;32907;41.412;2.164;2023-07-08T09:10:56;100546.41;;;28.21;50.15
47154;BME280;32907;41.412;2.164;2023-07-08T09:16:06;100558.50;;;28.40;50.33
47154;BME280;32907;41.412;2.164;2023-07-08T09:22:07;100576.97;;;28.28;52.54
47154;BME280;32907;41.412;2.164;2023-07-08T09:24:54;100581.94;;;28.34;52.93
47154;BME280;32907;41.412;2.164;2023-07-08T09:27:24;100565.38;;;28.34;51.97
47154;BME280;32907;41.412;2.164;2023-07-08T09:29:52;100567.66;;;28.45;51.69
47154;BME280;32907;41.412;2.164;2023-07-08T09:32:23;100589.81;;;28.60;51.80
47154;BME280;32907;41.412;2.164;2023-07-08T09:37:36;100582.91;;;28.66;51.32
47154;BME280;32907;41.412;2.164;2023-07-08T09:40:28;100578.06;;;28.63;50.25
47154;BME280;32907;41.412;2.164;2023-07-08T09:45:47;100577.97;;;28.60;50.71
47154;BME280;32907;41.412;2.164;2023-07-08T09:48:18;100572.31;;;28.68;50.70
47154;BME280;32907;41.412;2.164;2023-07-08T09:50:50;100575.53;;;28.70;50.41
47154;BME280;32907;41.412;2.164;2023-07-08T09:53:19;100568.88;;;28.72;50.79
47154;BME280;32907;41.412;2.164;2023-07-08T09:55:47;100555.41;;;28.70;50.56
47154;BME280;32907;41.412;2.164;2023-07-08T09:58:35;100575.28;;;28.88;50.36
47154;BME280;32907;41.412;2.164;2023-07-08T10:01:13;100561.94;;;28.78;48.92
47154;BME280;32907;41.412;2.164;2023-07-08T10:03:42;100569.13;;;28.66;48.86
47154;BME280;32907;41.412;2.164;2023-07-08T10:06:27;100592.78;;;28.67;45.75
47154;BME280;32907;41.412;2.164;2023-07-08T10:09:00;100576.25;;;28.55;50.47
47154;BME280;32907;41.412;2.164;2023-07-08T10:11:33;100563.47;;;28.63;51.17
47154;BME280;32907;41.412;2.164;2023-07-08T10:14:11;100591.25;;;28.82;51.13
47154;BME280;32907;41.412;2.164;2023-07-08T10:16:41;100593.44;;;28.89;51.14
47154;BME280;32907;41.412;2.164;2023-07-08T10:19:16;100593.38;;;28.73;50.49
47154;BME280;32907;41.412;2.164;2023-07-08T10:27:40;100598.47;;;28.87;51.68
47154;BME280;32907;41.412;2.164;2023-07-08T10:35:33;100573.50;;;28.95;51.00
47154;BME280;32907;41.412;2.164;2023-07-08T10:38:45;100611.47;;;29.26;50.51
47154;BME280;32907;41.412;2.164;2023-07-08T10:41:43;100589.19;;;29.19;50.35
47154;BME280;32907;41.412;2.164;2023-07-08T10:44:45;100580.81;;;29.16;49.99
47154;BME280;32907;41.412;2.164;2023-07-08T10:49:59;100631.75;;;29.46;50.30
47154;BME280;32907;41.412;2.164;2023-07-08T10:52:59;100623.91;;;29.48;49.81
47154;BME280;32907;41.412;2.164;2023-07-08T10:55:54;100633.00;;;29.49;50.38
47154;BME280;32907;41.412;2.164;2023-07-08T11:04:11;100642.81;;;29.46;51.13
47154;BME280;32907;41.412;2.164;2023-07-08T11:09:29;100614.06;;;29.35;51.33
47154;BME280;32907;41.412;2.164;2023-07-08T11:12:23;100621.75;;;29.42;51.70
47154;BME280;32907;41.412;2.164;2023-07-08T11:25:42;100632.44;;;29.43;47.29
47154;BME280;32907;41.412;2.164;2023-07-08T11:28:15;100606.63;;;29.08;48.62
47154;BME280;32907;41.412;2.164;2023-07-08T11:30:47;100625.06;;;29.19;52.01
47154;BME280;32907;41.412;2.164;2023-07-08T11:33:17;100636.88;;;29.32;52.29
47154;BME280;32907;41.412;2.164;2023-07-08T11:35:52;100622.28;;;29.32;52.35
47154;BME280;32907;41.412;2.164;2023-07-08T11:38:26;100609.78;;;29.22;51.44
47154;BME280;32907;41.412;2.164;2023-07-08T11:40:58;100596.06;;;29.25;52.05
47154;BME280;32907;41.412;2.164;2023-07-08T11:46:23;100632.56;;;29.47;51.67
47154;BME280;32907;41.412;2.164;2023-07-08T11:49:02;100589.50;;;29.30;51.81
47154;BME280;32907;41.412;2.164;2023-07-08T11:51:34;100630.91;;;29.58;51.05
47154;BME280;32907;41.412;2.164;2023-07-08T11:59:25;100626.75;;;29.64;50.78
47154;BME280;32907;41.412;2.164;2023-07-08T12:02:01;100606.03;;;29.58;51.12
47154;BME280;32907;41.412;2.164;2023-07-08T12:07:10;100611.88;;;29.69;51.08
47154;BME280;32907;41.412;2.164;2023-07-08T12:09:57;100610.53;;;29.78;50.55
47154;BME280;32907;41.412;2.164;2023-07-08T12:12:35;100612.38;;;29.74;50.69
47154;BME280;32907;41.412;2.164;2023-07-08T12:15:24;100620.25;;;29.72;49.35
47154;BME280;32907;41.412;2.164;2023-07-08T12:17:56;100623.25;;;29.67;49.53
47154;BME280;32907;41.412;2.164;2023-07-08T12:20:31;100609.78;;;29.66;51.16
47154;BME280;32907;41.412;2.164;2023-07-08T12:22:59;100609.44;;;29.67;50.66
47154;BME280;32907;41.412;2.164;2023-07-08T12:25:32;100609.53;;;29.71;50.12
47154;BME280;32907;41.412;2.164;2023-07-08T12:28:02;100587.31;;;29.67;49.38
47154;BME280;32907;41.412;2.164;2023-07-08T12:30:31;100569.47;;;29.49;49.87
47154;BME280;32907;41.412;2.164;2023-07-08T12:33:01;100605.53;;;29.68;50.34
47154;BME280;32907;41.412;2.164;2023-07-08T12:35:30;100589.75;;;29.53;50.40
47154;BME280;32907;41.412;2.164;2023-07-08T12:38:01;100601.22;;;29.55;50.12
47154;BME280;32907;41.412;2.164;2023-07-08T12:40:30;100596.16;;;29.57;50.29
47154;BME280;32907;41.412;2.164;2023-07-08T12:42:58;100586.19;;;29.52;50.43
47154;BME280;32907;41.412;2.164;2023-07-08T12:45:30;100604.09;;;29.74;50.28
47154;BME280;32907;41.412;2.164;2023-07-08T12:47:58;100568.91;;;29.43;48.54
47154;BME280;32907;41.412;2.164;2023-07-08T12:50:26;100581.69;;;29.48;50.73
47154;BME280;32907;41.412;2.164;2023-07-08T12:52:55;100584.66;;;29.55;51.22
47154;BME280;32907;41.412;2.164;2023-07-08T12:55:24;100603.28;;;29.74;50.56
47154;BME280;32907;41.412;2.164;2023-07-08T12:57:52;100594.56;;;29.72;50.19
47154;BME280;32907;41.412;2.164;2023-07-08T13:00:32;100618.91;;;29.82;50.21
47154;BME280;32907;41.412;2.164;2023-07-08T13:03:13;100618.28;;;29.89;50.58
47154;BME280;32907;41.412;2.164;2023-07-08T13:05:42;100597.41;;;29.75;50.01
47154;BME280;32907;41.412;2.164;2023-07-08T13:08:16;100579.16;;;29.71;50.70
47154;BME280;32907;41.412;2.164;2023-07-08T13:10:46;100604.47;;;29.89;50.61
47154;BME280;32907;41.412;2.164;2023-07-08T13:13:38;100577.25;;;29.75;50.55
47154;BME280;32907;41.412;2.164;2023-07-08T13:16:09;100601.94;;;29.84;51.00
47154;BME280;32907;41.412;2.164;2023-07-08T13:18:39;100603.59;;;29.85;50.88
47154;BME280;32907;41.412;2.164;2023-07-08T13:21:13;100603.31;;;29.90;50.91
47154;BME280;32907;41.412;2.164;2023-07-08T13:23:42;100569.63;;;29.68;50.65
47154;BME280;32907;41.412;2.164;2023-07-08T13:26:37;100591.00;;;29.87;51.42
47154;BME280;32907;41.412;2.164;2023-07-08T13:29:16;100596.53;;;29.87;51.84
47154;BME280;32907;41.412;2.164;2023-07-08T13:31:53;100577.38;;;29.78;51.50
47154;BME280;32907;41.412;2.164;2023-07-08T13:34:23;100596.09;;;29.85;51.26
47154;BME280;32907;41.412;2.164;2023-07-08T13:36:52;100566.38;;;29.66;51.09
47154;BME280;32907;41.412;2.164;2023-07-08T13:39:32;100560.34;;;29.61;50.77
47154;BME280;32907;41.412;2.164;2023-07-08T13:42:03;100552.66;;;29.54;50.88
47154;BME280;32907;41.412;2.164;2023-07-08T13:44:31;100591.19;;;29.78;51.08
47154;BME280;32907;41.412;2.164;2023-07-08T13:46:59;100590.03;;;29.79;51.05
47154;BME280;32907;41.412;2.164;2023-07-08T13:52:16;100558.56;;;29.68;50.99
47154;BME280;32907;41.412;2.164;2023-07-08T13:54:50;100589.47;;;29.90;50.72
47154;BME280;32907;41.412;2.164;2023-07-08T13:57:27;100581.47;;;29.85;50.72
47154;BME280;32907;41.412;2.164;2023-07-08T13:59:55;100582.53;;;29.80;50.76
47154;BME280;32907;41.412;2.164;2023-07-08T14:02:26;100596.53;;;29.87;50.68
47154;BME280;32907;41.412;2.164;2023-07-08T14:04:57;100578.06;;;29.75;50.73
47154;BME280;32907;41.412;2.164;2023-07-08T14:07:29;100597.34;;;29.88;50.44
47154;BME280;32907;41.412;2.164;2023-07-08T14:09:58;100586.09;;;29.80;50.59
47154;BME280;32907;41.412;2.164;2023-07-08T14:12:25;100562.31;;;29.60;50.51
47154;BME280;32907;41.412;2.164;2023-07-08T14:14:53;100570.59;;;29.60;50.45
47154;BME280;32907;41.412;2.164;2023-07-08T14:17:24;100581.09;;;29.70;50.05
47154;BME280;32907;41.412;2.164;2023-07-08T14:19:52;100590.56;;;29.69;50.41
47154;BME280;32907;41.412;2.164;2023-07-08T14:22:28;100605.44;;;29.80;50.15
47154;BME280;32907;41.412;2.164;2023-07-08T14:25:09;100594.19;;;29.73;50.34
47154;BME280;32907;41.412;2.164;2023-07-08T14:27:37;100606.00;;;29.86;50.31
47154;BME280;32907;41.412;2.164;2023-07-08T14:30:09;100577.25;;;29.75;50.10
47154;BME280;32907;41.412;2.164;2023-07-08T14:32:37;100574.84;;;29.73;49.88
47154;BME280;32907;41.412;2.164;2023-07-08T14:35:16;100600.97;;;29.92;50.10
47154;BME280;32907;41.412;2.164;2023-07-08T14:37:45;100597.78;;;29.90;50.12